Latest Coastal Weather Observations for Low Isles

IDQ60701

Issued at 2:35 am EST Wednesday 22 October 2014 (issued every 10 minutes, with the page automatically refreshed every 10 minutes)

About coastal observations | Map of coastal stations | Coastal observations for QLD | Marine services | Other Formats
Station Details ID: 031037 Name: LOW ISLES LIGHTHOUSE Lat: -16.38 Lon: 145.56 Height: 2.9 m
Data from the previous 72 hours. | See also: Recent months at Low Isles
Date/Time
EST
Temp

°C
Wind Pressure Rain
since 9am
mm
Weather Cloud Vis
km
Sea
Height
m
Swell
Dir
 
Speed
knots
Gust
knots
hPa Trend Height
m
Period
s
Dir
22/02:30am 23.8 ESE 20 25 1016.6 - 0.0 - - - - - - -
22/02:17am 24.0 ESE 19 29 1016.7 - 0.0 - - - - - - -
22/02:00am 24.1 ESE 19 25 1016.9 - 0.0 - - - - - - -
22/01:30am 24.2 SE 21 26 1017.3 - 0.0 - - - - - - -
22/01:00am 24.3 ESE 20 25 1017.8 - 0.0 - - - - - - -
22/12:30am 24.4 ESE 21 25 1018.3 - 0.0 - - - - - - -
22/12:00am 24.5 ESE 22 26 1018.7 - 0.0 - - - - - - -
 
Date/Time
EST
Temp

°C
Wind Pressure Rain
since 9am
mm
Weather Cloud Vis
km
Sea
Height
m
Swell
Dir
 
Speed
knots
Gust
knots
hPa Trend Height
m
Period
s
Dir
21/11:30pm 24.2 ESE 18 25 1019.2 - 0.0 - - - - - - -
21/11:00pm 24.6 SE 19 24 1019.5 - 0.0 - - - - - - -
21/10:30pm 24.7 SE 21 24 1019.6 - 0.0 - - - - - - -
21/10:00pm 24.6 SE 21 25 1019.5 - 0.0 - - - - - - -
21/09:30pm 24.8 ESE 20 26 1019.4 - 0.0 - - - - - - -
21/09:00pm 24.8 SE 24 28 1019.0 - 0.0 - - - - - - -
21/08:30pm 24.8 ESE 21 26 1018.8 - 0.0 - - - - - - -
21/08:00pm 24.8 SE 22 27 1018.6 - 0.0 - - - - - - -
21/07:30pm 24.7 SE 21 27 1018.4 - 0.0 - - - - - - -
21/07:00pm 24.8 ESE 20 28 1018.0 - 0.0 - - - - - - -
21/06:30pm 24.3 ESE 21 25 1017.8 - 0.0 - - - - - - -
21/06:13pm 24.5 ESE 19 24 1017.6 - 0.0 - - - - - - -
21/06:00pm 24.9 SE 23 27 1017.3 - 0.0 - - - - - - -
21/05:30pm 25.2 SE 23 27 1017.1 - 0.0 - - - - - - -
21/05:00pm 25.6 SE 21 24 1016.9 - 0.0 - - - - - - -
21/04:30pm 26.0 SE 19 22 1016.8 - 0.0 - - - - - - -
21/04:00pm 26.2 ESE 19 24 1016.8 - 0.0 - - - - - - -
21/03:30pm 26.9 ESE 19 25 1016.8 - 0.0 - - - - - - -
21/03:00pm 26.9 SE 20 24 1016.6 - 0.0 Haze Mostly clear 8 - - - -
21/02:30pm 28.4 ESE 19 24 1016.9 - 0.0 - - - - - - -
21/02:00pm 27.9 ESE 21 25 1017.1 - 0.0 - - - - - - -
21/01:30pm 27.7 ESE 20 24 1017.3 - 0.0 - - - - - - -
21/01:00pm 27.1 ESE 19 23 1017.7 - 0.0 - - - - - - -
21/12:30pm 27.4 ESE 19 25 1018.0 - 0.0 - - - - - - -
21/12:00pm 26.8 ESE 18 22 1018.4 - 0.0 - - - - - - -
21/11:30am 26.1 ESE 18 23 1018.8 - 0.0 - - - - - - -
21/11:00am 28.3 SE 15 21 1019.0 - 0.0 - - - - - - -
21/10:30am 28.2 SE 17 20 1019.1 - 0.0 - - - - - - -
21/10:00am 27.7 ESE 16 20 1019.1 - 0.0 - - - - - - -
21/09:30am 27.6 ESE 17 21 1019.1 - 0.0 - - - - - - -
21/09:00am 27.1 ESE 16 20 1018.9 - 3.0 Haze Mostly clear 12 - - - -
21/08:30am 26.2 ESE 17 22 1018.8 - 3.0 - - - - - - -
21/08:00am 25.6 ESE 14 19 1018.6 - 3.0 - - - - - - -
21/07:30am 24.9 ESE 17 21 1018.2 - 3.0 - - - - - - -
21/07:00am 24.5 ESE 17 20 1017.7 - 3.0 - - - - - - -
21/06:30am 24.1 SE 18 21 1017.3 - 3.0 - - - - - - -
21/06:00am 23.8 SE 17 22 1017.0 - 3.0 - - - - - - -
21/05:30am 23.7 SE 16 21 1016.9 - 3.0 - - - - - - -
21/05:00am 23.4 SSE 17 20 1016.6 - 3.0 - - - - - - -
21/04:30am 23.7 SSE 23 27 1016.6 - 3.0 - - - - - - -
21/04:21am 23.8 SSE 23 27 1016.7 - 3.0 - - - - - - -
21/04:00am 23.8 ESE 18 21 1016.6 - 3.0 - - - - - - -
21/03:30am 23.7 ESE 19 24 1016.5 - 3.0 - - - - - - -
21/03:00am 23.9 SE 19 23 1016.4 - 3.0 - - - - - - -
21/02:30am 23.8 ESE 18 23 1016.4 - 3.0 - - - - - - -
21/02:00am 23.9 SE 19 24 1016.7 - 3.0 - - - - - - -
21/01:30am 23.8 SE 23 28 1016.9 - 3.0 - - - - - - -
21/01:00am 24.1 ESE 22 28 1017.4 - 3.0 - - - - - - -
21/12:30am 24.1 ESE 19 24 1017.9 - 3.0 - - - - - - -
21/12:00am 23.9 SE 17 24 1018.2 - 3.0 - - - - - - -
 
Date/Time
EST
Temp

°C
Wind Pressure Rain
since 9am
mm
Weather Cloud Vis
km
Sea
Height
m
Swell
Dir
 
Speed
knots
Gust
knots
hPa Trend Height
m
Period
s
Dir
20/11:30pm 23.9 ESE 19 23 1018.4 - 3.0 - - - - - - -
20/11:00pm 23.9 SSE 19 22 1018.6 - 3.0 - - - - - - -
20/10:30pm 24.0 SSE 21 23 1018.6 - 3.0 - - - - - - -
20/10:28pm 24.2 SSE 21 23 1018.6 - 3.0 - - - - - - -
20/10:00pm 24.6 SE 20 24 1018.7 - 3.0 - - - - - - -
20/09:30pm 24.6 ESE 19 24 1018.6 - 3.0 - - - - - - -
20/09:00pm 24.6 ESE 18 23 1018.3 - 3.0 - - - - - - -
20/08:30pm 24.7 SE 18 23 1018.2 - 3.0 - - - - - - -
20/08:00pm 24.6 SE 21 24 1017.9 - 3.0 - - - - - - -
20/07:30pm 24.6 SE 20 25 1017.8 - 3.0 - - - - - - -
20/07:00pm 24.7 SE 20 25 1017.5 - 3.0 - - - - - - -
20/06:30pm 24.7 SE 19 23 1017.1 - 3.0 - - - - - - -
20/06:00pm 24.9 ESE 21 25 1016.8 - 3.0 - - - - - - -
20/05:30pm 25.2 ESE 20 25 1016.5 - 3.0 - - - - - - -
20/05:00pm 25.7 SE 18 24 1016.1 - 3.0 - - - - - - -
20/04:30pm 26.0 ESE 21 26 1016.0 - 3.0 - - - - - - -
20/04:00pm 26.2 SE 21 27 1015.9 - 3.0 - - - - - - -
20/03:30pm 26.7 SE 22 28 1016.1 - 3.0 - - - - - - -
20/03:00pm 26.9 SE 22 25 1016.2 - 3.0 Distant precip. Partly cloudy 8 - - - -
20/02:30pm 26.4 SE 22 26 1016.5 - 3.0 - - - - - - -
20/02:00pm 25.6 SE 24 29 1016.7 - 3.0 - - - - - - -
20/01:30pm 25.4 SE 24 29 1017.0 - 3.0 - - - - - - -
20/01:00pm 26.1 SE 22 27 1017.3 - 3.0 - - - - - - -
20/12:30pm 27.5 ESE 22 27 1017.8 - 3.0 - - - - - - -
20/12:00pm 26.7 ESE 22 27 1018.1 - 3.0 - - - - - - -
20/11:30am 25.2 ESE 20 25 1018.6 - 3.0 - - - - - - -
20/11:00am 24.4 ESE 21 25 1018.8 - 3.0 - - - - - - -
20/10:30am 23.3 E 20 27 1018.9 - 3.0 - - - - - - -
20/10:00am 23.2 ESE 21 29 1019.3 - 2.4 - - - - - - -
20/09:30am 26.9 ESE 21 29 1019.3 - 0.0 - - - - - - -
20/09:00am 24.9 ESE 22 26 1019.1 - 1.4 Distant precip. Mostly cloudy 8 - - - -
20/08:30am 25.7 ESE 20 25 1019.0 - 1.4 - - - - - - -
20/08:00am 25.0 ESE 19 23 1018.6 - 1.4 - - - - - - -
20/07:30am 24.7 ESE 18 23 1018.5 - 1.4 - - - - - - -
20/07:00am 24.7 ESE 19 24 1018.0 - 1.2 - - - - - - -
20/06:30am 24.8 ESE 21 26 1017.5 - 1.2 - - - - - - -
20/06:00am 24.3 ESE 19 24 1017.1 - 1.2 - - - - - - -
20/05:30am 24.2 E 20 26 1016.9 - 1.2 - - - - - - -
20/05:00am 24.6 E 17 22 1016.8 - 1.2 - - - - - - -
20/04:30am 24.2 E 19 25 1016.7 - 1.2 - - - - - - -
20/04:00am 24.2 ESE 17 23 1016.5 - 1.2 - - - - - - -
20/03:30am 24.3 ESE 17 21 1016.6 - 1.2 - - - - - - -
20/03:00am 24.2 ESE 17 22 1016.6 - 1.2 - - - - - - -
20/02:30am 24.3 ESE 19 23 1016.7 - 1.2 - - - - - - -
20/02:00am 24.2 ESE 20 25 1016.9 - 1.2 - - - - - - -
20/01:30am 24.3 ESE 20 26 1017.2 - 1.2 - - - - - - -
20/01:00am 24.2 ESE 20 25 1017.7 - 1.2 - - - - - - -
20/12:30am 24.2 ESE 21 27 1018.0 - 1.2 - - - - - - -
20/12:05am 23.5 ESE 20 30 1018.4 - 1.2 - - - - - - -
20/12:00am 23.3 E 21 30 1018.4 - 1.2 - - - - - - -
 
Date/Time
EST
Temp

°C
Wind Pressure Rain
since 9am
mm
Weather Cloud Vis
km
Sea
Height
m
Swell
Dir
 
Speed
knots
Gust
knots
hPa Trend Height
m
Period
s
Dir
19/11:56pm 24.3 ESE 20 30 1018.5 - 1.2 - - - - - - -
19/11:30pm 23.9 ESE 19 25 1018.8 - 1.2 - - - - - - -
19/11:00pm 24.8 SE 19 25 1019.1 - 1.2 - - - - - - -
19/10:30pm 24.6 SE 21 26 1019.2 - 1.2 - - - - - - -
19/10:00pm 25.0 ESE 21 25 1019.3 - 1.2 - - - - - - -
19/09:30pm 24.9 SE 20 25 1019.2 - 1.2 - - - - - - -
19/09:00pm 24.7 SE 22 27 1018.8 - 1.2 - - - - - - -
19/08:30pm 24.9 ESE 20 24 1018.6 - 1.2 - - - - - - -
19/08:00pm 25.0 ESE 21 28 1018.3 - 1.2 - - - - - - -
19/07:30pm 24.9 ESE 22 28 1018.0 - 1.2 - - - - - - -
19/07:00pm 24.9 SE 23 28 1017.8 - 1.2 - - - - - - -
19/06:30pm 25.1 SE 24 28 1017.5 - 1.2 - - - - - - -
19/06:00pm 25.0 SE 25 30 1017.2 - 1.2 - - - - - - -
19/05:30pm 25.4 SE 25 30 1017.1 - 1.2 - - - - - - -
19/05:00pm 25.8 SE 25 31 1016.8 - 1.2 - - - - - - -
19/04:30pm 25.9 SE 24 30 1016.4 - 1.2 - - - - - - -
19/04:00pm 26.2 SE 23 29 1016.2 - 1.2 - - - - - - -
19/03:30pm 26.7 SE 23 29 1016.2 - 1.2 - - - - - - -
19/03:00pm 27.3 ESE 23 29 1016.2 - 1.2 Haze Partly cloudy 8 - - - -
19/02:30pm 27.3 SE 22 26 1016.5 - 1.2 - - - - - - -
19/02:00pm 27.8 SE 23 29 1016.6 - 1.2 - - - - - - -
19/01:30pm 27.4 SE 22 27 1016.9 - 1.2 - - - - - - -
19/01:00pm 27.7 SE 22 28 1017.4 - 1.2 - - - - - - -
19/12:30pm 27.6 SE 21 27 1017.8 - 1.2 - - - - - - -
19/12:00pm 27.2 SE 22 26 1018.1 - 1.2 - - - - - - -
19/11:30am 26.9 SE 22 27 1018.6 - 1.2 - - - - - - -
19/11:08am 25.8 ESE 15 26 1018.8 - 1.2 - - - - - - -
19/11:00am 25.5 ESE 12 16 1018.9 - 1.2 - - - - - - -
19/10:30am 23.4 E 18 23 1019.2 - 1.2 - - - - - - -
19/10:00am 23.4 E 20 27 1019.4 - 0.6 - - - - - - -
19/09:30am 26.2 E 17 22 1019.5 - 0.0 - - - - - - -
19/09:24am 26.0 E 19 22 1019.4 - 0.0 - - - - - - -
19/09:00am 26.2 SE 21 26 1019.3 - 0.0 Distant precip. Partly cloudy 10 - - - -
19/08:30am 26.4 SE 21 25 1019.2 - 0.0 - - - - - - -
19/08:00am 24.9 SE 19 23 1019.1 - 0.0 - - - - - - -
19/07:30am 25.0 SE 19 22 1018.8 - 0.0 - - - - - - -
19/07:00am 24.9 SE 19 23 1018.3 - 0.0 - - - - - - -
19/06:30am 24.6 SE 19 24 1018.0 - 0.0 - - - - - - -
19/06:00am 24.4 SE 19 23 1017.6 - 0.0 - - - - - - -
19/05:30am 24.1 SE 19 23 1017.7 - 0.0 - - - - - - -
19/05:00am 24.0 SE 20 25 1017.5 - 0.0 - - - - - - -
19/04:30am 24.1 SE 21 25 1017.2 - 0.0 - - - - - - -
19/04:00am 24.3 SE 20 24 1016.9 - 0.0 - - - - - - -
19/03:30am 24.2 SE 20 23 1016.9 - 0.0 - - - - - - -
19/03:00am 24.3 SE 21 25 1016.8 - 0.0 - - - - - - -

Other Formats:

Comma delimited format used in spreadsheet applications
http://www.bom.gov.au/fwo/IDQ60701/IDQ60701.94285.axf

JavaScript Object Notation format (JSON) in row-major order
http://www.bom.gov.au/fwo/IDQ60701/IDQ60701.94285.json